Airfield :
LOGIN :

Register | Disclaimer

   EN    FR    IT 

 










Legend :    VFR   Marginal VFR   IFR   Intensive IFR   Very Intensive IFR
Visi :
Ceiling :
>= 8 km
>= 3000ft
5 to 8 km
1000 to 3000 ft
1500m to 5 km
500 to 1000 ft
800 to 1500m
200 to 500 ft
< 800m
< 200 ft
Symbols :   Thunderstorms  Fog  Heavy snow  Heavy precipitations  Wind > 20 kt
SIGMETs :     Misc.  Thunderstorms  Icing  Turbulence  Mountain Waves  Volcanic Ashes







- Airport Elevation : 247 ft
- IATA code : BLL


EKBI - Billund

CURRENT METAR :
  • 201250Z AUTO 23011KT 9999 -RA BKN010/// OVC028/// 07/06 Q1017

EXPIRED METARs :
  • 201220Z AUTO 22010KT 9999 DZ OVC014/// 07/05 Q1017
  • 201150Z AUTO 22008KT 190V260 9999 FEW012/// BKN038/// BKN071/// 08/05 Q1017
  • 201120Z AUTO 24008KT 9999 FEW012/// FEW036/// BKN059/// 08/06 Q1017
  • 201050Z AUTO 23009KT 9999 FEW010/// BKN085/// 08/05 Q1016
  • 201020Z AUTO 24009KT 9999 BKN008/// BKN095/// 07/05 Q1016

TAF TAF EKBI
Valid from the 20 at 12:00 until the 21 at 12:00 UTC


201104Z 2012/2112 24008KT 9999 BKN015
BECMG 2012/2014 4000 -RADZ BKN008
TEMPO 2014/2106 2500 RADZ BR BKN004
TEMPO 2106/2112 2000 BR BKN002
No reported NOTAMs for that airfield.



MET'MAP, your aeronautical weather chart ! - Copyright ORBIFLY December 2007 - Disclaimer

ORBIFLY MET'MAP TEAM :

Programming & Development : Alexandra Zaïnal
Concept & Development : Baudouin d'Aumeries
Co-Development & Prog : Marc-Olivier Méhu
Technical & hardware support : Manuel Goepfert

Contact : metmap@orbifly.com




SOURCES & CREDITS :

   NOAA